createdAt,value
2022-08-04T00:02:30.542Z,22.50
2022-08-04T00:05:05.527Z,22.50
2022-08-04T00:07:53.265Z,22.40
2022-08-04T00:10:23.026Z,22.40
2022-08-04T00:12:52.273Z,22.40
2022-08-04T00:15:20.198Z,22.40
2022-08-04T00:17:59.907Z,22.40
2022-08-04T00:20:32.430Z,22.30
2022-08-04T00:23:01.667Z,22.30
2022-08-04T00:25:29.087Z,22.20
2022-08-04T00:27:56.017Z,22.20
2022-08-04T00:30:23.204Z,22.10
2022-08-04T00:32:50.335Z,22.10
2022-08-04T00:35:17.632Z,22.00
2022-08-04T00:37:45.494Z,21.90
2022-08-04T00:40:44.900Z,21.90
2022-08-04T00:43:32.525Z,21.80
2022-08-04T00:46:15.764Z,21.80
2022-08-04T00:48:53.065Z,21.70
2022-08-04T00:52:31.987Z,21.80
2022-08-04T00:55:05.405Z,21.70
2022-08-04T00:57:57.708Z,21.60
2022-08-04T01:00:25.212Z,21.60
2022-08-04T01:02:58.357Z,21.60
2022-08-04T01:05:38.141Z,21.60
2022-08-04T01:08:19.565Z,21.60
2022-08-04T01:11:11.577Z,21.50
2022-08-04T01:13:52.576Z,21.50
2022-08-04T01:16:24.810Z,21.50
2022-08-04T01:19:05.232Z,21.30
2022-08-04T01:21:47.991Z,21.30
2022-08-04T01:25:02.315Z,21.30
2022-08-04T01:27:43.874Z,21.20
2022-08-04T01:30:12.457Z,21.20
2022-08-04T01:32:52.133Z,21.20
2022-08-04T01:35:47.736Z,21.10
2022-08-04T01:38:34.955Z,21.10
2022-08-04T01:41:06.953Z,21.10
2022-08-04T01:43:36.084Z,21.00
2022-08-04T01:46:05.265Z,21.00
2022-08-04T01:48:38.423Z,20.90
2022-08-04T01:51:08.530Z,20.90
2022-08-04T01:53:42.390Z,20.90
2022-08-04T01:56:11.818Z,20.80
2022-08-04T01:58:40.720Z,20.70
2022-08-04T02:01:10.428Z,20.70
2022-08-04T02:04:19.995Z,20.70
2022-08-04T02:06:40.983Z,20.60
2022-08-04T02:09:22.312Z,20.50
2022-08-04T02:12:05.608Z,20.40
2022-08-04T02:14:56.934Z,20.40
2022-08-04T02:17:36.872Z,20.40
2022-08-04T02:20:12.247Z,20.30
2022-08-04T02:22:57.665Z,20.40
2022-08-04T02:25:27.452Z,20.30
2022-08-04T02:28:03.437Z,20.30
2022-08-04T02:30:44.484Z,20.30
2022-08-04T02:33:18.089Z,20.30
2022-08-04T02:35:49.709Z,20.30
2022-08-04T02:38:25.236Z,20.20
2022-08-04T02:40:56.516Z,20.20
2022-08-04T02:43:51.288Z,20.20
2022-08-04T02:46:18.324Z,20.20
2022-08-04T02:48:47.751Z,20.10
2022-08-04T02:51:17.217Z,20.10
2022-08-04T02:53:45.767Z,20.00
2022-08-04T02:56:18.177Z,20.00
2022-08-04T02:58:49.270Z,20.00
2022-08-04T03:01:16.157Z,20.00
2022-08-04T03:04:07.330Z,19.90
2022-08-04T03:07:16.893Z,19.90
2022-08-04T03:10:24.768Z,19.90
2022-08-04T03:13:36.995Z,19.90
2022-08-04T03:16:18.141Z,19.80
2022-08-04T03:19:19.072Z,19.70
2022-08-04T03:22:22.904Z,19.70
2022-08-04T03:25:22.107Z,19.70
2022-08-04T03:28:20.147Z,19.50
2022-08-04T03:31:17.741Z,19.40
2022-08-04T03:34:12.722Z,19.30
2022-08-04T03:37:01.381Z,19.30
2022-08-04T03:39:58.473Z,19.20
2022-08-04T03:42:39.206Z,19.10
2022-08-04T03:45:41.720Z,19.10
2022-08-04T03:48:08.582Z,19.10
2022-08-04T03:51:37.122Z,19.10
2022-08-04T03:54:32.184Z,19.10
2022-08-04T03:57:01.992Z,19.10
2022-08-04T03:59:53.746Z,19.10
2022-08-04T04:02:57.301Z,19.00
2022-08-04T04:05:27.649Z,19.00
2022-08-04T04:08:19.087Z,19.00
2022-08-04T04:11:09.416Z,18.90
2022-08-04T04:14:18.645Z,18.90
2022-08-04T04:17:08.862Z,18.90
2022-08-04T04:19:57.614Z,18.90
2022-08-04T04:22:46.591Z,18.90
2022-08-04T04:25:36.398Z,18.90
2022-08-04T04:28:44.736Z,19.00
2022-08-04T04:31:15.595Z,19.00
2022-08-04T04:34:31.180Z,19.00
2022-08-04T04:37:34.231Z,19.20
2022-08-04T04:40:14.329Z,19.40
2022-08-04T04:43:10.123Z,19.60
2022-08-04T04:45:55.765Z,19.90
2022-08-04T04:48:51.127Z,19.90
2022-08-04T04:51:28.963Z,20.00
2022-08-04T04:54:04.796Z,19.80
2022-08-04T04:57:03.593Z,19.70
2022-08-04T04:59:35.538Z,19.70
2022-08-04T05:02:27.189Z,19.80
2022-08-04T05:05:25.346Z,20.00
2022-08-04T05:08:43.404Z,20.30
2022-08-04T05:11:13.631Z,20.50
2022-08-04T05:14:38.678Z,20.80
2022-08-04T05:17:10.957Z,21.00
2022-08-04T05:19:51.813Z,21.20
2022-08-04T05:22:25.457Z,21.30
2022-08-04T05:25:00.819Z,21.40
2022-08-04T05:27:40.103Z,21.40
2022-08-04T05:30:09.259Z,21.50
2022-08-04T05:32:50.494Z,21.60
2022-08-04T05:35:39.002Z,21.70
2022-08-04T05:38:22.385Z,21.80
2022-08-04T05:40:51.235Z,21.90
2022-08-04T05:43:19.201Z,22.00
2022-08-04T05:45:48.503Z,22.10
2022-08-04T05:48:15.656Z,22.20
2022-08-04T05:50:43.777Z,22.30
2022-08-04T05:53:11.643Z,22.30
2022-08-04T05:55:58.641Z,22.40
2022-08-04T05:58:26.859Z,22.50
2022-08-04T06:00:55.194Z,22.50
2022-08-04T06:03:24.160Z,22.50
2022-08-04T06:05:52.881Z,22.60
2022-08-04T06:08:20.011Z,22.70
2022-08-04T06:10:49.471Z,22.70
2022-08-04T06:13:48.574Z,22.70
2022-08-04T06:16:17.855Z,22.80
2022-08-04T06:20:03.087Z,22.90
2022-08-04T06:21:51.907Z,23.00
2022-08-04T06:24:26.371Z,23.10
2022-08-04T06:26:54.019Z,23.30
2022-08-04T06:29:40.342Z,23.40
2022-08-04T06:32:30.160Z,23.50
2022-08-04T06:35:04.617Z,23.60
2022-08-04T06:37:41.968Z,23.60
2022-08-04T06:40:30.961Z,23.70
2022-08-04T06:43:02.288Z,23.80
2022-08-04T06:45:30.262Z,23.90
2022-08-04T06:47:58.402Z,24.00
2022-08-04T06:51:32.923Z,24.20
2022-08-04T06:53:13.628Z,24.30
2022-08-04T06:55:46.748Z,24.40
2022-08-04T06:58:14.934Z,24.50
2022-08-04T07:00:44.130Z,24.60
2022-08-04T07:03:11.583Z,24.80
2022-08-04T07:05:40.239Z,24.80
2022-08-04T07:08:08.213Z,24.90
2022-08-04T07:10:35.509Z,25.20
2022-08-04T07:13:03.420Z,25.50
2022-08-04T07:15:31.437Z,25.60
2022-08-04T07:18:00.380Z,25.80
2022-08-04T07:20:34.721Z,25.90
2022-08-04T07:23:07.677Z,26.10
2022-08-04T07:26:01.029Z,26.40
2022-08-04T07:28:28.074Z,26.50
2022-08-04T07:30:56.786Z,26.70
2022-08-04T07:33:24.814Z,26.80
2022-08-04T07:36:09.786Z,27.00
2022-08-04T07:38:48.581Z,27.10
2022-08-04T07:41:40.321Z,27.20
2022-08-04T07:44:08.717Z,27.30
2022-08-04T07:46:36.718Z,27.50
2022-08-04T07:49:05.067Z,27.60
2022-08-04T07:51:33.066Z,27.90
2022-08-04T07:54:00.582Z,28.00
2022-08-04T07:56:28.478Z,28.10
2022-08-04T07:58:56.023Z,28.40
2022-08-04T08:01:27.182Z,28.50
2022-08-04T08:03:56.210Z,28.60
2022-08-04T08:06:33.027Z,28.80
2022-08-04T08:09:12.519Z,29.00
2022-08-04T08:12:37.647Z,29.10
2022-08-04T08:14:35.600Z,29.40
2022-08-04T08:17:03.660Z,29.60
2022-08-04T08:19:34.832Z,29.50
2022-08-04T08:22:02.747Z,29.80
2022-08-04T08:24:30.996Z,30.00
2022-08-04T08:27:00.637Z,30.30
2022-08-04T08:29:29.667Z,30.70
2022-08-04T08:32:02.660Z,31.00
2022-08-04T08:34:34.242Z,31.20
2022-08-04T08:37:40.325Z,31.60
2022-08-04T08:40:41.402Z,31.80
2022-08-04T08:44:05.153Z,32.10
2022-08-04T08:46:14.732Z,32.30
2022-08-04T08:48:53.841Z,32.50
2022-08-04T08:51:39.125Z,32.70
2022-08-04T08:54:40.626Z,33.00
2022-08-04T08:57:33.893Z,33.40
2022-08-04T09:00:09.698Z,33.60
2022-08-04T09:03:04.178Z,33.90
2022-08-04T09:05:38.136Z,34.40
2022-08-04T09:08:30.619Z,34.70
2022-08-04T09:10:59.928Z,34.70
2022-08-04T09:13:35.901Z,34.60
2022-08-04T09:16:28.676Z,34.50
2022-08-04T09:19:04.579Z,34.30
2022-08-04T09:21:51.073Z,34.30
2022-08-04T09:24:36.094Z,34.60
2022-08-04T09:27:34.028Z,35.00
2022-08-04T09:30:09.142Z,35.00
2022-08-04T09:32:48.737Z,35.00
2022-08-04T09:35:30.692Z,35.20
2022-08-04T09:38:19.379Z,35.70
2022-08-04T09:41:20.982Z,36.20
2022-08-04T09:44:49.242Z,36.60
2022-08-04T09:47:39.182Z,36.90
2022-08-04T09:50:41.138Z,37.20
2022-08-04T09:53:13.715Z,37.60
2022-08-04T09:55:53.844Z,37.90
2022-08-04T09:58:46.775Z,38.20
2022-08-04T10:01:23.352Z,38.50
2022-08-04T10:03:59.796Z,38.70
2022-08-04T10:06:51.818Z,38.80
2022-08-04T10:09:47.870Z,39.00
2022-08-04T10:12:23.979Z,39.00
2022-08-04T10:15:28.243Z,39.10
2022-08-04T10:17:55.611Z,39.10
2022-08-04T10:20:47.121Z,39.30
2022-08-04T10:23:56.225Z,39.40
2022-08-04T10:26:48.878Z,39.70
2022-08-04T10:29:26.723Z,40.00
2022-08-04T10:32:05.133Z,40.20
2022-08-04T10:34:43.365Z,40.40
2022-08-04T10:37:17.143Z,39.80
2022-08-04T10:40:13.773Z,39.20
2022-08-04T10:42:50.301Z,38.70
2022-08-04T10:45:29.071Z,38.70
2022-08-04T10:48:35.957Z,38.90
2022-08-04T10:51:58.846Z,39.20
2022-08-04T10:55:00.144Z,39.70
2022-08-04T10:57:39.210Z,40.20
2022-08-04T11:00:11.873Z,40.20
2022-08-04T11:02:57.728Z,40.30
2022-08-04T11:05:49.637Z,40.40
2022-08-04T11:08:45.351Z,40.40
2022-08-04T11:11:22.620Z,40.50
2022-08-04T11:14:12.734Z,40.50
2022-08-04T11:16:45.019Z,40.00
2022-08-04T11:19:45.149Z,40.00
2022-08-04T11:22:23.769Z,39.80
2022-08-04T11:25:25.253Z,39.80
2022-08-04T11:28:07.381Z,39.80
2022-08-04T11:30:42.863Z,39.70
2022-08-04T11:33:36.799Z,39.90
2022-08-04T11:36:24.990Z,40.00
2022-08-04T11:39:16.010Z,40.40
2022-08-04T11:42:01.969Z,40.60
2022-08-04T11:44:50.282Z,40.50
2022-08-04T11:47:34.638Z,40.40
2022-08-04T11:50:32.525Z,40.20
2022-08-04T11:53:00.537Z,39.90
2022-08-04T11:55:29.290Z,40.00
2022-08-04T11:57:57.320Z,40.20
2022-08-04T12:00:28.095Z,40.10
2022-08-04T12:03:23.391Z,40.30
2022-08-04T12:06:13.465Z,40.80
2022-08-04T12:08:54.588Z,41.20
2022-08-04T12:12:03.595Z,41.50
2022-08-04T12:14:56.711Z,41.90
2022-08-04T12:17:37.030Z,42.20
2022-08-04T12:20:38.541Z,42.30
2022-08-04T12:23:18.324Z,42.30
2022-08-04T12:25:50.498Z,42.30
2022-08-04T12:28:26.241Z,42.20
2022-08-04T12:31:04.377Z,41.90
2022-08-04T12:34:04.639Z,41.90
2022-08-04T12:37:04.789Z,42.10
2022-08-04T12:39:33.135Z,41.70
2022-08-04T12:42:07.517Z,41.60
2022-08-04T12:44:38.884Z,41.40
2022-08-04T12:47:26.774Z,41.40
2022-08-04T12:50:02.359Z,41.70
2022-08-04T12:53:01.492Z,42.00
2022-08-04T12:55:33.518Z,42.30
2022-08-04T12:58:02.923Z,42.30
2022-08-04T13:00:42.105Z,42.00
2022-08-04T13:03:14.217Z,42.10
2022-08-04T13:05:43.000Z,42.30
2022-08-04T13:08:11.743Z,42.40
2022-08-04T13:10:45.014Z,42.40
2022-08-04T13:13:18.419Z,42.30
2022-08-04T13:16:03.090Z,42.50
2022-08-04T13:18:33.344Z,42.60
2022-08-04T13:21:19.521Z,42.80
2022-08-04T13:24:10.267Z,42.70
2022-08-04T13:27:03.546Z,42.80
2022-08-04T13:29:58.053Z,42.80
2022-08-04T13:32:29.771Z,42.80
2022-08-04T13:35:00.146Z,42.40
2022-08-04T13:37:35.355Z,42.20
2022-08-04T13:40:07.313Z,42.20
2022-08-04T13:42:35.764Z,42.10
2022-08-04T13:45:06.379Z,42.20
2022-08-04T13:47:38.250Z,42.40
2022-08-04T13:50:23.613Z,42.30
2022-08-04T13:52:53.719Z,42.00
2022-08-04T13:55:26.884Z,42.00
2022-08-04T13:57:58.997Z,42.10
2022-08-04T14:00:30.483Z,41.90
2022-08-04T14:03:23.045Z,41.80
2022-08-04T14:06:18.546Z,41.80
2022-08-04T14:08:50.526Z,42.10
2022-08-04T14:12:07.145Z,42.00
2022-08-04T14:14:26.744Z,42.00
2022-08-04T14:17:20.218Z,41.90
2022-08-04T14:19:50.435Z,41.90
2022-08-04T14:22:26.875Z,41.60
2022-08-04T14:24:57.865Z,41.50
2022-08-04T14:27:25.603Z,41.40
2022-08-04T14:29:52.603Z,41.50
2022-08-04T14:32:21.519Z,41.60
2022-08-04T14:34:51.220Z,41.80
2022-08-04T14:37:20.550Z,42.10
2022-08-04T14:40:08.271Z,42.20
2022-08-04T14:42:55.376Z,42.10
2022-08-04T14:46:03.535Z,42.20
2022-08-04T14:48:30.479Z,41.90
2022-08-04T14:50:57.940Z,41.70
2022-08-04T14:53:26.751Z,41.90
2022-08-04T14:55:57.018Z,41.60
2022-08-04T14:58:38.772Z,41.30
2022-08-04T15:01:12.964Z,40.70
2022-08-04T15:03:50.486Z,40.20
2022-08-04T15:06:26.171Z,40.10
2022-08-04T15:08:54.133Z,40.20
2022-08-04T15:11:23.098Z,40.00
2022-08-04T15:13:56.534Z,40.00
2022-08-04T15:16:25.990Z,40.10
2022-08-04T15:18:54.573Z,40.00
2022-08-04T15:21:22.926Z,39.70
2022-08-04T15:23:51.144Z,39.70
2022-08-04T15:26:43.697Z,39.70
2022-08-04T15:29:22.965Z,39.90
2022-08-04T15:32:05.697Z,40.10
2022-08-04T15:34:52.509Z,40.20
2022-08-04T15:37:28.992Z,40.20
2022-08-04T15:39:58.554Z,40.20
2022-08-04T15:43:08.862Z,40.20
2022-08-04T15:46:32.884Z,40.30
2022-08-04T15:48:42.760Z,40.10
2022-08-04T15:51:14.397Z,39.60
2022-08-04T15:54:03.650Z,39.30
2022-08-04T15:56:28.775Z,39.00
2022-08-04T15:58:57.700Z,38.60
2022-08-04T16:01:25.514Z,38.70
2022-08-04T16:04:01.142Z,38.90
2022-08-04T16:06:29.453Z,39.20
2022-08-04T16:09:02.161Z,39.30
2022-08-04T16:11:31.006Z,39.40
2022-08-04T16:13:59.233Z,39.50
2022-08-04T16:16:46.864Z,39.70
2022-08-04T16:19:22.928Z,39.70
2022-08-04T16:21:55.744Z,39.70
2022-08-04T16:24:28.727Z,39.50
2022-08-04T16:27:00.867Z,39.30
2022-08-04T16:29:28.971Z,39.20
2022-08-04T16:32:05.332Z,39.00
2022-08-04T16:34:49.188Z,38.70
2022-08-04T16:37:18.901Z,38.50
2022-08-04T16:39:50.575Z,38.50
2022-08-04T16:42:37.229Z,38.50
2022-08-04T16:45:14.145Z,38.60
2022-08-04T16:47:50.066Z,38.70
2022-08-04T16:50:23.086Z,39.00
2022-08-04T16:52:54.465Z,39.10
2022-08-04T16:55:23.775Z,39.10
2022-08-04T16:57:52.749Z,39.30
2022-08-04T17:00:32.831Z,39.40
2022-08-04T17:03:06.626Z,39.60
2022-08-04T17:05:38.291Z,39.60
2022-08-04T17:10:56.620Z,39.70
2022-08-04T17:14:02.022Z,39.50
2022-08-04T17:16:22.603Z,39.20
2022-08-04T17:18:53.275Z,39.10
2022-08-04T17:21:31.913Z,39.00
2022-08-04T17:24:15.412Z,38.70
2022-08-04T17:26:51.581Z,38.50
2022-08-04T17:29:21.805Z,38.30
2022-08-04T17:31:48.890Z,38.30
2022-08-04T17:34:21.594Z,38.10
2022-08-04T17:36:48.616Z,38.00
2022-08-04T17:39:23.922Z,38.00
2022-08-04T17:41:56.742Z,38.00
2022-08-04T17:44:38.530Z,38.00
2022-08-04T17:47:17.160Z,37.90
2022-08-04T17:49:53.331Z,37.80
2022-08-04T17:55:16.643Z,37.80
2022-08-04T17:57:52.344Z,37.70
2022-08-04T18:00:20.120Z,37.60
2022-08-04T18:02:54.234Z,37.60
2022-08-04T18:05:54.020Z,37.50
2022-08-04T18:08:40.856Z,37.30
2022-08-04T18:11:05.268Z,37.00
2022-08-04T18:13:42.885Z,36.80
2022-08-04T18:16:22.969Z,36.70
2022-08-04T18:19:09.556Z,36.70
2022-08-04T18:24:34.203Z,36.50
2022-08-04T18:27:06.656Z,36.40
2022-08-04T18:29:39.439Z,36.30
2022-08-04T18:32:09.203Z,36.10
2022-08-04T18:34:54.401Z,35.90
2022-08-04T18:40:30.031Z,35.20
2022-08-04T18:43:00.064Z,34.90
2022-08-04T18:45:34.853Z,34.50
2022-08-04T18:48:04.312Z,34.30
2022-08-04T18:51:11.206Z,34.10
2022-08-04T18:53:35.018Z,33.80
2022-08-04T18:56:20.019Z,33.70
2022-08-04T18:58:53.653Z,33.50
2022-08-04T19:01:21.057Z,33.40
2022-08-04T19:03:58.104Z,33.10
2022-08-04T19:06:26.063Z,32.90
2022-08-04T19:08:54.544Z,32.80
2022-08-04T19:11:38.592Z,32.80
2022-08-04T19:14:13.271Z,32.60
2022-08-04T19:16:41.055Z,32.50
2022-08-04T19:19:13.403Z,32.50
2022-08-04T19:22:01.588Z,32.20
2022-08-04T19:24:34.432Z,32.10
2022-08-04T19:27:07.819Z,31.90
2022-08-04T19:29:41.384Z,31.80
2022-08-04T19:32:14.061Z,31.70
2022-08-04T19:34:47.119Z,31.60
2022-08-04T19:37:57.409Z,31.40
2022-08-04T19:40:06.082Z,31.30
2022-08-04T19:42:33.095Z,31.20
2022-08-04T19:45:00.263Z,31.10
2022-08-04T19:48:17.598Z,31.00
2022-08-04T19:50:16.343Z,31.00
2022-08-04T19:52:51.461Z,30.90
2022-08-04T19:55:19.749Z,30.90
2022-08-04T19:57:50.142Z,30.80
2022-08-04T20:00:33.207Z,30.70
2022-08-04T20:03:11.378Z,30.70
2022-08-04T20:05:55.238Z,30.50
2022-08-04T20:08:26.396Z,30.40
2022-08-04T20:11:13.221Z,30.30
2022-08-04T20:13:42.978Z,30.20
2022-08-04T20:16:29.875Z,30.10
2022-08-04T20:19:00.901Z,30.00
2022-08-04T20:21:53.857Z,29.90
2022-08-04T20:24:38.832Z,29.90
2022-08-04T20:27:07.849Z,29.80
2022-08-04T20:29:40.653Z,29.70
2022-08-04T20:32:09.728Z,29.50
2022-08-04T20:34:37.751Z,29.40
2022-08-04T20:37:07.373Z,29.30
2022-08-04T20:39:37.702Z,29.30
2022-08-04T20:42:04.968Z,29.10
2022-08-04T20:44:33.579Z,29.00
2022-08-04T20:47:00.798Z,28.90
2022-08-04T20:49:34.930Z,28.80
2022-08-04T20:52:13.442Z,28.70
2022-08-04T20:54:48.079Z,28.70
2022-08-04T20:57:16.690Z,28.60
2022-08-04T20:59:50.354Z,28.50
2022-08-04T21:02:27.570Z,28.40
2022-08-04T21:04:54.934Z,28.30
2022-08-04T21:07:24.138Z,28.20
2022-08-04T21:09:51.998Z,28.10
2022-08-04T21:12:27.656Z,28.10
2022-08-04T21:15:01.589Z,27.90
2022-08-04T21:17:58.844Z,27.80
2022-08-04T21:20:28.508Z,27.70
2022-08-04T21:22:59.604Z,27.60
2022-08-04T21:25:28.848Z,27.50
2022-08-04T21:27:58.976Z,27.30
2022-08-04T21:30:31.192Z,27.30
2022-08-04T21:33:04.551Z,27.20
2022-08-04T21:35:38.233Z,27.10
2022-08-04T21:38:17.232Z,27.00
2022-08-04T21:40:55.857Z,26.90
2022-08-04T21:43:27.182Z,26.80
2022-08-04T21:45:55.867Z,26.70
2022-08-04T21:48:27.300Z,26.60
2022-08-04T21:50:55.223Z,26.50
2022-08-04T21:53:22.872Z,26.40
2022-08-04T21:56:06.697Z,26.30
2022-08-04T21:58:36.797Z,26.20
2022-08-04T22:01:06.070Z,26.20
2022-08-04T22:03:52.621Z,26.00
2022-08-04T22:06:28.004Z,26.00
2022-08-04T22:08:57.162Z,26.10
2022-08-04T22:11:49.002Z,26.00
2022-08-04T22:14:14.819Z,26.10
2022-08-04T22:16:41.740Z,26.10
2022-08-04T22:19:10.891Z,26.00
2022-08-04T22:21:39.288Z,26.00
2022-08-04T22:24:14.293Z,25.90
2022-08-04T22:26:42.254Z,25.90
2022-08-04T22:29:14.620Z,25.80
2022-08-04T22:31:53.291Z,25.80
2022-08-04T22:34:24.706Z,25.70
2022-08-04T22:36:53.494Z,25.60
2022-08-04T22:39:23.582Z,25.60
2022-08-04T22:42:03.907Z,25.50
2022-08-04T22:44:33.449Z,25.40
2022-08-04T22:47:01.280Z,25.40
2022-08-04T22:49:31.179Z,25.30
2022-08-04T22:51:58.881Z,25.30
2022-08-04T22:54:29.771Z,25.30
2022-08-04T22:56:58.859Z,25.20
2022-08-04T22:59:27.783Z,25.20
2022-08-04T23:02:00.087Z,25.10
2022-08-04T23:04:31.246Z,25.10
2022-08-04T23:06:59.006Z,25.10
2022-08-04T23:09:51.014Z,25.20
2022-08-04T23:12:25.558Z,25.10
2022-08-04T23:14:54.992Z,25.10
2022-08-04T23:17:22.831Z,25.20
2022-08-04T23:19:57.360Z,25.10
2022-08-04T23:22:41.254Z,25.10
2022-08-04T23:25:16.372Z,24.90
2022-08-04T23:27:50.449Z,24.90
2022-08-04T23:30:29.674Z,24.90
2022-08-04T23:32:57.619Z,24.90
2022-08-04T23:35:24.643Z,24.90
2022-08-04T23:37:57.927Z,24.90
2022-08-04T23:40:32.972Z,24.90
2022-08-04T23:43:17.453Z,24.90
2022-08-04T23:46:07.628Z,24.80
2022-08-04T23:48:36.657Z,24.60
2022-08-04T23:51:14.275Z,24.50
2022-08-04T23:54:01.801Z,24.50
2022-08-04T23:56:30.618Z,24.40
2022-08-04T23:59:00.088Z,24.40
